Fall River Mills, CA (96028)

10:04 AM PDT on August 28, 2016 (GMT -0700)
Glenburn | | Change Station

Elev 3347 ft 41.08 °N, 121.54 °W | Updated 39 seconds ago

Clear
Clear
65.9 °F
Feels Like 65.9 °F
N
0.0
Wind Variable Wind from NW
Gusts 1.0 mph

Today
High -- | Low -- °F
--% Chance of Precip.
Yesterday
High -- | Low -- °F
Precip. -- in
Pressure 30.11 in
Visibility 10.0 miles
Clouds Clear
Dew Point 43 °F
Humidity 43%
Rainfall 0.00 in
Snow Depth Not available.
6:29 AM 7:43 PM
Waning Crescent, 14% visible
METAR KMHS 281656Z AUTO 00000KT 10SM CLR 24/07 A3016 RMK AO2 SLP196 T02390072
Pressure 30.11 in
Visibility 10.0 miles
Clouds Clear
Dew Point 43 °F
Humidity 43%
Rainfall 0.00 in
Snow Depth Not available.
6:29 AM 7:43 PM
Waning Crescent, 14% visible
METAR KMHS 281656Z AUTO 00000KT 10SM CLR 24/07 A3016 RMK AO2 SLP196 T02390072

10-Day Weather Forecast

Almanac

Astronomy

Aug. 28, 2016 Rise Set
Actual Time
Civil Twilight
Nautical Twilight
Astronomical Twilight
Moon
Length of Visible Light
Length of Day
Tomorrow will be .
, % of the Moon is Illuminated

Today's Extremes

State Highs State Lows

Community

WunderPhotos

Upload Photos

1,935,627 photos uploaded!

WunderBlog® & News

Nearby

Air Quality

  Air Quality AQ Index Pollutant
Not available.

Snow Depth

Station Depth Elevation

Earthquake Activity

City Distance Mag. Time & Date
Minimum magnitude displayed is 2.5.

Coastal Water Temperatures

Place Temperature

Stations

Nearby Weather Stations

Station Location Temp. Windchill Dew Point Humidity Wind Precip. Elev Updated Type
                   

Watches & Warnings

There are currently no watches in effect.